sensor_id;sensor_type;location;lat;lon;timestamp;pressure;altitude;pressure_sealevel;temperature;humidity
8705;BME280;4389;41.932;25.904;2023-03-20T00:00:24;101054.34;;;7.64;95.02
8705;BME280;4389;41.932;25.904;2023-03-20T00:02:53;101052.97;;;7.71;95.27
8705;BME280;4389;41.932;25.904;2023-03-20T00:05:22;101047.81;;;7.57;95.53
8705;BME280;4389;41.932;25.904;2023-03-20T00:07:50;101047.81;;;7.57;95.20
8705;BME280;4389;41.932;25.904;2023-03-20T00:10:18;101045.38;;;7.54;95.55
8705;BME280;4389;41.932;25.904;2023-03-20T00:12:48;101037.69;;;7.51;95.93
8705;BME280;4389;41.932;25.904;2023-03-20T00:15:28;101038.50;;;7.51;95.61
8705;BME280;4389;41.932;25.904;2023-03-20T00:17:57;101033.88;;;7.55;95.75
8705;BME280;4389;41.932;25.904;2023-03-20T00:20:24;101036.00;;;7.50;95.34
8705;BME280;4389;41.932;25.904;2023-03-20T00:22:51;101034.50;;;7.46;95.16
8705;BME280;4389;41.932;25.904;2023-03-20T00:25:21;101028.38;;;7.45;95.50
8705;BME280;4389;41.932;25.904;2023-03-20T00:27:50;101032.19;;;7.41;95.80
8705;BME280;4389;41.932;25.904;2023-03-20T00:30:20;101026.50;;;7.47;95.56
8705;BME280;4389;41.932;25.904;2023-03-20T00:32:49;101027.22;;;7.37;96.28
8705;BME280;4389;41.932;25.904;2023-03-20T00:35:22;101018.16;;;7.41;96.08
8705;BME280;4389;41.932;25.904;2023-03-20T00:37:50;101015.94;;;7.35;95.93
8705;BME280;4389;41.932;25.904;2023-03-20T00:40:17;101016.16;;;7.32;96.67
8705;BME280;4389;41.932;25.904;2023-03-20T00:42:45;101013.19;;;7.24;96.92
8705;BME280;4389;41.932;25.904;2023-03-20T00:45:16;101018.66;;;7.21;97.41
8705;BME280;4389;41.932;25.904;2023-03-20T00:47:44;101017.28;;;7.15;97.45
8705;BME280;4389;41.932;25.904;2023-03-20T00:50:17;101017.78;;;7.08;96.87
8705;BME280;4389;41.932;25.904;2023-03-20T00:52:45;101012.56;;;7.20;96.85
8705;BME280;4389;41.932;25.904;2023-03-20T00:55:12;101028.72;;;7.02;96.41
8705;BME280;4389;41.932;25.904;2023-03-20T00:57:42;101017.13;;;6.78;95.32
8705;BME280;4389;41.932;25.904;2023-03-20T01:00:22;101018.78;;;6.52;94.46
8705;BME280;4389;41.932;25.904;2023-03-20T01:02:51;101004.53;;;6.56;94.90
8705;BME280;4389;41.932;25.904;2023-03-20T01:05:19;101004.22;;;6.61;97.04
8705;BME280;4389;41.932;25.904;2023-03-20T01:07:47;101004.78;;;6.66;98.22
8705;BME280;4389;41.932;25.904;2023-03-20T01:10:14;101000.63;;;6.76;98.90
8705;BME280;4389;41.932;25.904;2023-03-20T01:12:42;100997.94;;;6.90;98.44
8705;BME280;4389;41.932;25.904;2023-03-20T01:15:20;100997.38;;;6.85;98.35
8705;BME280;4389;41.932;25.904;2023-03-20T01:17:47;100995.22;;;6.65;97.53
8705;BME280;4389;41.932;25.904;2023-03-20T01:20:18;100982.47;;;6.59;97.87
8705;BME280;4389;41.932;25.904;2023-03-20T01:22:46;100985.09;;;6.59;98.78
8705;BME280;4389;41.932;25.904;2023-03-20T01:25:13;100984.81;;;6.63;98.17
8705;BME280;4389;41.932;25.904;2023-03-20T01:27:41;100985.19;;;6.57;98.70
8705;BME280;4389;41.932;25.904;2023-03-20T01:32:46;100985.63;;;6.64;98.94
8705;BME280;4389;41.932;25.904;2023-03-20T01:35:14;100986.03;;;6.58;98.56
8705;BME280;4389;41.932;25.904;2023-03-20T01:37:42;100981.56;;;6.46;98.52
8705;BME280;4389;41.932;25.904;2023-03-20T01:40:18;100978.00;;;6.47;97.81
8705;BME280;4389;41.932;25.904;2023-03-20T01:42:50;100981.22;;;6.38;98.09
8705;BME280;4389;41.932;25.904;2023-03-20T01:45:20;100981.13;;;6.39;97.48
8705;BME280;4389;41.932;25.904;2023-03-20T01:47:49;100987.06;;;6.29;98.14
8705;BME280;4389;41.932;25.904;2023-03-20T01:50:27;100984.03;;;6.21;99.06
8705;BME280;4389;41.932;25.904;2023-03-20T01:53:03;100987.06;;;6.15;98.20
8705;BME280;4389;41.932;25.904;2023-03-20T01:55:32;100984.25;;;6.18;98.30
8705;BME280;4389;41.932;25.904;2023-03-20T01:58:02;100985.34;;;6.14;97.88
8705;BME280;4389;41.932;25.904;2023-03-20T02:00:32;100982.56;;;6.03;98.37
8705;BME280;4389;41.932;25.904;2023-03-20T02:03:03;100987.63;;;6.06;98.58
8705;BME280;4389;41.932;25.904;2023-03-20T02:05:32;100984.84;;;5.95;99.05
8705;BME280;4389;41.932;25.904;2023-03-20T02:08:08;100985.78;;;5.80;99.78
8705;BME280;4389;41.932;25.904;2023-03-20T02:10:38;100976.59;;;5.87;99.14
8705;BME280;4389;41.932;25.904;2023-03-20T02:13:06;100972.34;;;5.98;99.67
8705;BME280;4389;41.932;25.904;2023-03-20T02:15:33;100976.75;;;5.84;98.97
8705;BME280;4389;41.932;25.904;2023-03-20T02:18:03;100980.53;;;5.80;99.03
8705;BME280;4389;41.932;25.904;2023-03-20T02:20:43;100974.38;;;5.65;99.79
8705;BME280;4389;41.932;25.904;2023-03-20T02:23:48;100976.06;;;5.66;99.64
8705;BME280;4389;41.932;25.904;2023-03-20T02:26:30;100965.00;;;5.61;99.92
8705;BME280;4389;41.932;25.904;2023-03-20T02:32:29;100964.53;;;5.55;100.00
8705;BME280;4389;41.932;25.904;2023-03-20T02:38:12;100968.44;;;5.48;98.64
8705;BME280;4389;41.932;25.904;2023-03-20T02:40:47;100964.44;;;5.42;98.25
8705;BME280;4389;41.932;25.904;2023-03-20T02:43:21;100963.41;;;5.45;99.46
8705;BME280;4389;41.932;25.904;2023-03-20T02:45:54;100966.78;;;5.47;99.66
8705;BME280;4389;41.932;25.904;2023-03-20T02:48:32;100963.56;;;5.42;100.00
8705;BME280;4389;41.932;25.904;2023-03-20T02:51:09;100967.88;;;5.57;99.75
8705;BME280;4389;41.932;25.904;2023-03-20T02:53:49;100968.84;;;5.70;100.00
8705;BME280;4389;41.932;25.904;2023-03-20T02:56:23;100966.59;;;5.78;100.00
8705;BME280;4389;41.932;25.904;2023-03-20T02:58:58;100962.28;;;5.63;100.00
8705;BME280;4389;41.932;25.904;2023-03-20T03:01:30;100962.38;;;5.61;100.00
8705;BME280;4389;41.932;25.904;2023-03-20T03:04:03;100966.41;;;5.53;100.00
8705;BME280;4389;41.932;25.904;2023-03-20T03:06:35;100964.34;;;5.58;100.00
8705;BME280;4389;41.932;25.904;2023-03-20T03:09:06;100959.84;;;5.60;100.00
8705;BME280;4389;41.932;25.904;2023-03-20T03:11:41;100971.59;;;5.68;100.00
8705;BME280;4389;41.932;25.904;2023-03-20T03:14:14;100972.03;;;5.75;100.00
8705;BME280;4389;41.932;25.904;2023-03-20T03:16:43;100967.16;;;5.69;100.00
8705;BME280;4389;41.932;25.904;2023-03-20T03:19:13;100959.84;;;5.60;100.00
8705;BME280;4389;41.932;25.904;2023-03-20T03:21:44;100959.13;;;5.72;100.00
8705;BME280;4389;41.932;25.904;2023-03-20T03:24:26;100960.25;;;5.82;100.00
8705;BME280;4389;41.932;25.904;2023-03-20T03:26:55;100961.00;;;5.84;100.00
8705;BME280;4389;41.932;25.904;2023-03-20T03:29:24;100966.97;;;6.00;100.00
8705;BME280;4389;41.932;25.904;2023-03-20T03:31:53;100963.97;;;6.20;100.00
8705;BME280;4389;41.932;25.904;2023-03-20T03:34:22;100963.97;;;6.20;100.00
8705;BME280;4389;41.932;25.904;2023-03-20T03:36:53;100966.94;;;6.28;100.00
8705;BME280;4389;41.932;25.904;2023-03-20T03:39:32;100968.25;;;6.35;100.00
8705;BME280;4389;41.932;25.904;2023-03-20T03:42:07;100966.19;;;6.40;100.00
8705;BME280;4389;41.932;25.904;2023-03-20T03:44:42;100962.13;;;6.48;100.00
8705;BME280;4389;41.932;25.904;2023-03-20T03:47:17;100964.75;;;6.48;99.19
8705;BME280;4389;41.932;25.904;2023-03-20T03:49:49;100967.53;;;6.59;100.00
8705;BME280;4389;41.932;25.904;2023-03-20T03:52:21;100962.59;;;6.67;98.94
8705;BME280;4389;41.932;25.904;2023-03-20T03:54:51;100961.91;;;6.78;98.59
8705;BME280;4389;41.932;25.904;2023-03-20T03:57:24;100966.31;;;6.65;98.24
8705;BME280;4389;41.932;25.904;2023-03-20T03:59:54;100972.91;;;6.58;99.06
8705;BME280;4389;41.932;25.904;2023-03-20T04:02:23;100979.94;;;6.57;98.63
8705;BME280;4389;41.932;25.904;2023-03-20T04:04:51;100981.63;;;6.58;98.70
8705;BME280;4389;41.932;25.904;2023-03-20T04:07:19;100973.81;;;6.57;98.74
8705;BME280;4389;41.932;25.904;2023-03-20T04:09:46;100974.28;;;6.63;99.34
8705;BME280;4389;41.932;25.904;2023-03-20T04:12:32;100972.69;;;6.61;98.49
8705;BME280;4389;41.932;25.904;2023-03-20T04:15:00;100978.28;;;6.69;98.58
8705;BME280;4389;41.932;25.904;2023-03-20T04:17:27;100969.47;;;6.70;98.91
8705;BME280;4389;41.932;25.904;2023-03-20T04:19:54;100973.59;;;6.74;99.68
8705;BME280;4389;41.932;25.904;2023-03-20T04:22:20;100974.19;;;6.65;99.16
8705;BME280;4389;41.932;25.904;2023-03-20T04:24:48;100975.44;;;6.86;99.15
8705;BME280;4389;41.932;25.904;2023-03-20T04:27:15;100978.78;;;6.88;99.27
8705;BME280;4389;41.932;25.904;2023-03-20T04:29:44;100984.22;;;6.85;99.02
8705;BME280;4389;41.932;25.904;2023-03-20T04:32:11;100974.47;;;6.87;98.65
8705;BME280;4389;41.932;25.904;2023-03-20T04:34:38;100980.16;;;6.93;98.93
8705;BME280;4389;41.932;25.904;2023-03-20T04:37:05;100985.53;;;6.92;98.80
8705;BME280;4389;41.932;25.904;2023-03-20T04:39:33;100977.34;;;6.96;98.41
8705;BME280;4389;41.932;25.904;2023-03-20T04:42:01;100976.72;;;6.93;99.05
8705;BME280;4389;41.932;25.904;2023-03-20T04:44:28;100985.88;;;7.00;98.88
8705;BME280;4389;41.932;25.904;2023-03-20T04:46:57;100983.03;;;7.03;98.69
8705;BME280;4389;41.932;25.904;2023-03-20T04:49:24;100985.13;;;6.98;98.66
8705;BME280;4389;41.932;25.904;2023-03-20T04:51:51;100982.44;;;7.12;99.09
8705;BME280;4389;41.932;25.904;2023-03-20T04:54:18;100988.97;;;7.19;98.93
8705;BME280;4389;41.932;25.904;2023-03-20T04:56:45;100992.16;;;7.24;98.40
8705;BME280;4389;41.932;25.904;2023-03-20T04:59:11;100996.88;;;7.31;98.07
8705;BME280;4389;41.932;25.904;2023-03-20T05:01:38;100996.59;;;7.36;97.85
8705;BME280;4389;41.932;25.904;2023-03-20T05:04:06;100988.38;;;7.40;98.02
8705;BME280;4389;41.932;25.904;2023-03-20T05:06:34;100994.88;;;7.35;97.74
8705;BME280;4389;41.932;25.904;2023-03-20T05:09:01;100996.91;;;7.44;98.44
8705;BME280;4389;41.932;25.904;2023-03-20T05:11:28;100992.78;;;7.40;97.47
8705;BME280;4389;41.932;25.904;2023-03-20T05:13:55;100992.38;;;7.33;98.34
8705;BME280;4389;41.932;25.904;2023-03-20T05:16:22;100996.16;;;7.42;98.22
8705;BME280;4389;41.932;25.904;2023-03-20T05:18:49;100996.38;;;7.39;98.69
8705;BME280;4389;41.932;25.904;2023-03-20T05:21:17;100990.06;;;7.54;98.37
8705;BME280;4389;41.932;25.904;2023-03-20T05:23:44;100987.44;;;7.54;98.48
8705;BME280;4389;41.932;25.904;2023-03-20T05:26:11;100985.44;;;7.57;98.25
8705;BME280;4389;41.932;25.904;2023-03-20T05:28:38;100992.53;;;7.57;97.60
8705;BME280;4389;41.932;25.904;2023-03-20T05:31:05;100993.66;;;7.53;97.43
8705;BME280;4389;41.932;25.904;2023-03-20T05:33:32;100995.97;;;7.45;98.18
8705;BME280;4389;41.932;25.904;2023-03-20T05:35:59;101006.09;;;7.51;98.54
8705;BME280;4389;41.932;25.904;2023-03-20T05:38:27;101010.69;;;7.35;99.07
8705;BME280;4389;41.932;25.904;2023-03-20T05:40:57;101009.63;;;7.25;99.57
8705;BME280;4389;41.932;25.904;2023-03-20T05:43:25;101001.97;;;7.34;99.35
8705;BME280;4389;41.932;25.904;2023-03-20T05:45:53;101010.09;;;7.44;99.34
8705;BME280;4389;41.932;25.904;2023-03-20T05:48:20;101008.72;;;7.51;98.65
8705;BME280;4389;41.932;25.904;2023-03-20T05:50:47;101011.13;;;7.29;98.77
8705;BME280;4389;41.932;25.904;2023-03-20T05:53:14;101010.50;;;7.38;98.71
8705;BME280;4389;41.932;25.904;2023-03-20T05:55:42;101015.75;;;7.38;99.27
8705;BME280;4389;41.932;25.904;2023-03-20T05:58:10;101010.41;;;7.52;99.03
8705;BME280;4389;41.932;25.904;2023-03-20T06:00:37;101002.81;;;7.60;98.68
8705;BME280;4389;41.932;25.904;2023-03-20T06:03:04;101007.13;;;7.61;98.79
8705;BME280;4389;41.932;25.904;2023-03-20T06:05:32;101013.47;;;7.71;98.37
8705;BME280;4389;41.932;25.904;2023-03-20T06:07:59;101010.72;;;7.85;97.73
8705;BME280;4389;41.932;25.904;2023-03-20T06:10:26;101013.47;;;7.71;97.28
8705;BME280;4389;41.932;25.904;2023-03-20T06:12:56;101020.66;;;7.94;97.15
8705;BME280;4389;41.932;25.904;2023-03-20T06:15:25;101020.75;;;7.92;96.81
8705;BME280;4389;41.932;25.904;2023-03-20T06:17:52;101024.88;;;7.96;96.14
8705;BME280;4389;41.932;25.904;2023-03-20T06:20:19;101021.88;;;7.88;96.42
8705;BME280;4389;41.932;25.904;2023-03-20T06:22:46;101019.56;;;7.71;96.77
8705;BME280;4389;41.932;25.904;2023-03-20T06:25:13;101018.31;;;7.77;97.55
8705;BME280;4389;41.932;25.904;2023-03-20T06:27:40;101021.03;;;8.13;97.15
8705;BME280;4389;41.932;25.904;2023-03-20T06:30:10;101023.16;;;8.08;96.71
8705;BME280;4389;41.932;25.904;2023-03-20T06:32:37;101015.13;;;8.09;95.74
8705;BME280;4389;41.932;25.904;2023-03-20T06:35:05;101023.38;;;8.30;94.94
8705;BME280;4389;41.932;25.904;2023-03-20T06:37:32;101012.63;;;8.08;95.25
8705;BME280;4389;41.932;25.904;2023-03-20T06:39:59;101020.63;;;8.06;96.13
8705;BME280;4389;41.932;25.904;2023-03-20T06:42:25;101013.66;;;8.30;95.08
8705;BME280;4389;41.932;25.904;2023-03-20T06:44:52;101015.03;;;8.23;95.02
8705;BME280;4389;41.932;25.904;2023-03-20T06:47:20;101017.91;;;8.08;95.47
8705;BME280;4389;41.932;25.904;2023-03-20T06:49:47;101018.75;;;8.21;96.32
8705;BME280;4389;41.932;25.904;2023-03-20T06:52:16;101016.78;;;8.48;96.17
8705;BME280;4389;41.932;25.904;2023-03-20T06:54:43;101019.84;;;8.42;95.02
8705;BME280;4389;41.932;25.904;2023-03-20T06:57:10;101019.50;;;8.59;94.91
8705;BME280;4389;41.932;25.904;2023-03-20T06:59:37;101030.03;;;8.94;93.58
8705;BME280;4389;41.932;25.904;2023-03-20T07:02:04;101029.31;;;8.93;91.68
8705;BME280;4389;41.932;25.904;2023-03-20T07:04:32;101035.84;;;8.99;92.15
8705;BME280;4389;41.932;25.904;2023-03-20T07:06:59;101032.72;;;9.05;91.58
8705;BME280;4389;41.932;25.904;2023-03-20T07:09:26;101029.63;;;9.11;91.19
8705;BME280;4389;41.932;25.904;2023-03-20T07:11:53;101029.75;;;8.87;90.70
8705;BME280;4389;41.932;25.904;2023-03-20T07:14:20;101028.06;;;8.86;92.50
8705;BME280;4389;41.932;25.904;2023-03-20T07:16:47;101019.53;;;9.05;92.28
8705;BME280;4389;41.932;25.904;2023-03-20T07:19:14;101011.91;;;9.13;91.65
8705;BME280;4389;41.932;25.904;2023-03-20T07:21:42;101014.63;;;9.35;90.58
8705;BME280;4389;41.932;25.904;2023-03-20T07:24:09;101012.28;;;9.65;89.49
8705;BME280;4389;41.932;25.904;2023-03-20T07:26:36;101011.09;;;9.58;88.34
8705;BME280;4389;41.932;25.904;2023-03-20T07:29:05;101011.66;;;9.51;88.73
8705;BME280;4389;41.932;25.904;2023-03-20T07:31:32;101005.53;;;9.16;90.13
8705;BME280;4389;41.932;25.904;2023-03-20T07:33:59;101008.38;;;9.36;91.03
8705;BME280;4389;41.932;25.904;2023-03-20T07:36:26;101007.00;;;9.76;89.78
8705;BME280;4389;41.932;25.904;2023-03-20T07:38:54;101005.13;;;9.78;88.62
8705;BME280;4389;41.932;25.904;2023-03-20T07:41:21;101014.72;;;9.90;87.95
8705;BME280;4389;41.932;25.904;2023-03-20T07:43:48;101008.72;;;9.77;86.60
8705;BME280;4389;41.932;25.904;2023-03-20T07:46:15;101009.19;;;9.71;88.43
8705;BME280;4389;41.932;25.904;2023-03-20T07:48:42;101001.28;;;9.71;88.87
8705;BME280;4389;41.932;25.904;2023-03-20T07:51:09;101003.94;;;9.93;88.48
8705;BME280;4389;41.932;25.904;2023-03-20T07:53:35;101006.69;;;9.92;88.61
8705;BME280;4389;41.932;25.904;2023-03-20T07:56:04;100996.91;;;10.16;87.75
8705;BME280;4389;41.932;25.904;2023-03-20T07:58:31;101004.06;;;10.47;86.50
8705;BME280;4389;41.932;25.904;2023-03-20T08:00:58;101002.66;;;10.85;86.07
8705;BME280;4389;41.932;25.904;2023-03-20T08:03:25;101002.56;;;10.76;85.50
8705;BME280;4389;41.932;25.904;2023-03-20T08:05:53;100993.22;;;11.03;84.51
8705;BME280;4389;41.932;25.904;2023-03-20T08:08:20;100999.06;;;11.18;83.34
8705;BME280;4389;41.932;25.904;2023-03-20T08:10:46;100987.31;;;11.31;82.62
8705;BME280;4389;41.932;25.904;2023-03-20T08:13:15;100985.72;;;11.40;81.98
8705;BME280;4389;41.932;25.904;2023-03-20T08:15:42;100981.63;;;11.15;82.02
8705;BME280;4389;41.932;25.904;2023-03-20T08:18:08;100987.56;;;11.28;83.25
8705;BME280;4389;41.932;25.904;2023-03-20T08:20:35;100989.25;;;11.50;81.04
8705;BME280;4389;41.932;25.904;2023-03-20T08:23:02;100991.59;;;11.43;82.13
8705;BME280;4389;41.932;25.904;2023-03-20T08:25:29;100988.81;;;11.86;80.71
8705;BME280;4389;41.932;25.904;2023-03-20T08:27:58;100986.38;;;11.53;80.86
8705;BME280;4389;41.932;25.904;2023-03-20T08:30:27;100987.88;;;11.35;82.47
8705;BME280;4389;41.932;25.904;2023-03-20T08:32:54;100987.69;;;11.06;82.68
8705;BME280;4389;41.932;25.904;2023-03-20T08:35:22;100993.56;;;11.30;81.89
8705;BME280;4389;41.932;25.904;2023-03-20T08:37:49;100996.88;;;11.43;81.79
8705;BME280;4389;41.932;25.904;2023-03-20T08:40:16;100997.50;;;11.67;81.35
8705;BME280;4389;41.932;25.904;2023-03-20T08:42:43;100990.53;;;11.35;80.83
8705;BME280;4389;41.932;25.904;2023-03-20T08:45:12;100984.72;;;10.89;83.77
8705;BME280;4389;41.932;25.904;2023-03-20T08:47:40;100979.63;;;10.65;84.36
8705;BME280;4389;41.932;25.904;2023-03-20T08:50:08;100969.31;;;10.51;85.30
8705;BME280;4389;41.932;25.904;2023-03-20T08:52:35;100971.28;;;10.27;87.02
8705;BME280;4389;41.932;25.904;2023-03-20T08:55:02;100967.63;;;10.50;87.80
8705;BME280;4389;41.932;25.904;2023-03-20T08:57:31;100973.38;;;10.66;87.12
8705;BME280;4389;41.932;25.904;2023-03-20T08:59:58;100961.56;;;10.70;86.86
8705;BME280;4389;41.932;25.904;2023-03-20T09:02:26;100965.56;;;10.96;85.67
8705;BME280;4389;41.932;25.904;2023-03-20T09:04:54;100959.84;;;11.12;85.81
8705;BME280;4389;41.932;25.904;2023-03-20T09:07:21;100958.81;;;11.44;85.29
8705;BME280;4389;41.932;25.904;2023-03-20T09:09:48;100954.78;;;11.40;84.60
8705;BME280;4389;41.932;25.904;2023-03-20T09:12:15;100961.28;;;11.36;83.54
8705;BME280;4389;41.932;25.904;2023-03-20T09:14:43;100959.00;;;11.52;84.06
8705;BME280;4389;41.932;25.904;2023-03-20T09:17:11;100960.13;;;11.70;83.27
8705;BME280;4389;41.932;25.904;2023-03-20T09:19:38;100951.44;;;11.89;83.09
8705;BME280;4389;41.932;25.904;2023-03-20T09:22:11;100950.63;;;11.98;81.17
8705;BME280;4389;41.932;25.904;2023-03-20T09:24:38;100939.78;;;12.10;81.77
8705;BME280;4389;41.932;25.904;2023-03-20T09:27:05;100942.06;;;12.15;81.97
8705;BME280;4389;41.932;25.904;2023-03-20T09:29:32;100935.94;;;12.24;80.68
8705;BME280;4389;41.932;25.904;2023-03-20T09:32:00;100934.56;;;12.29;80.25
8705;BME280;4389;41.932;25.904;2023-03-20T09:34:27;100935.59;;;12.47;79.11
8705;BME280;4389;41.932;25.904;2023-03-20T09:36:55;100929.56;;;12.45;76.17
8705;BME280;4389;41.932;25.904;2023-03-20T09:39:23;100923.72;;;12.51;77.49
8705;BME280;4389;41.932;25.904;2023-03-20T09:41:51;100925.97;;;12.75;77.42
8705;BME280;4389;41.932;25.904;2023-03-20T09:44:28;100928.06;;;12.71;76.61
8705;BME280;4389;41.932;25.904;2023-03-20T09:47:08;100915.47;;;12.73;77.10
8705;BME280;4389;41.932;25.904;2023-03-20T09:49:44;100911.72;;;12.85;74.20
8705;BME280;4389;41.932;25.904;2023-03-20T09:52:26;100906.44;;;13.04;71.14
8705;BME280;4389;41.932;25.904;2023-03-20T09:54:57;100912.00;;;13.30;72.92
8705;BME280;4389;41.932;25.904;2023-03-20T09:57:28;100909.72;;;13.44;71.20
8705;BME280;4389;41.932;25.904;2023-03-20T09:59:58;100916.44;;;13.48;71.30
8705;BME280;4389;41.932;25.904;2023-03-20T10:02:36;100903.22;;;13.75;69.84
8705;BME280;4389;41.932;25.904;2023-03-20T10:05:14;100904.09;;;13.93;68.81
8705;BME280;4389;41.932;25.904;2023-03-20T10:07:43;100895.91;;;13.77;68.81
8705;BME280;4389;41.932;25.904;2023-03-20T10:10:14;100892.47;;;13.94;68.85
8705;BME280;4389;41.932;25.904;2023-03-20T10:12:49;100891.53;;;14.22;68.16
8705;BME280;4389;41.932;25.904;2023-03-20T10:15:30;100877.88;;;14.52;68.23
8705;BME280;4389;41.932;25.904;2023-03-20T10:18:06;100880.31;;;14.63;67.36
8705;BME280;4389;41.932;25.904;2023-03-20T10:20:37;100878.03;;;14.68;66.08
8705;BME280;4389;41.932;25.904;2023-03-20T10:23:07;100861.13;;;14.77;65.57
8705;BME280;4389;41.932;25.904;2023-03-20T10:25:42;100860.75;;;14.89;65.19
8705;BME280;4389;41.932;25.904;2023-03-20T10:28:15;100851.13;;;14.96;64.46
8705;BME280;4389;41.932;25.904;2023-03-20T10:30:51;100852.16;;;14.78;64.37
8705;BME280;4389;41.932;25.904;2023-03-20T10:33:32;100847.53;;;15.05;63.07
8705;BME280;4389;41.932;25.904;2023-03-20T10:36:13;100845.47;;;15.17;62.72
8705;BME280;4389;41.932;25.904;2023-03-20T10:38:52;100840.81;;;15.19;61.48
8705;BME280;4389;41.932;25.904;2023-03-20T10:41:27;100837.69;;;15.49;59.86
8705;BME280;4389;41.932;25.904;2023-03-20T10:43:56;100828.97;;;15.72;59.70
8705;BME280;4389;41.932;25.904;2023-03-20T10:46:26;100828.03;;;15.89;58.33
8705;BME280;4389;41.932;25.904;2023-03-20T10:48:57;100822.69;;;15.81;59.40
8705;BME280;4389;41.932;25.904;2023-03-20T10:51:33;100810.59;;;16.03;58.23
8705;BME280;4389;41.932;25.904;2023-03-20T10:54:04;100807.19;;;15.93;57.28
8705;BME280;4389;41.932;25.904;2023-03-20T10:56:37;100802.50;;;15.87;56.22
8705;BME280;4389;41.932;25.904;2023-03-20T10:59:09;100799.72;;;15.96;54.03
8705;BME280;4389;41.932;25.904;2023-03-20T11:01:38;100792.88;;;16.02;56.69
8705;BME280;4389;41.932;25.904;2023-03-20T11:04:05;100788.00;;;16.47;57.17
8705;BME280;4389;41.932;25.904;2023-03-20T11:06:34;100777.78;;;16.82;56.01
8705;BME280;4389;41.932;25.904;2023-03-20T11:09:11;100774.81;;;16.85;55.61
8705;BME280;4389;41.932;25.904;2023-03-20T11:11:45;100781.31;;;16.83;54.56
8705;BME280;4389;41.932;25.904;2023-03-20T11:14:16;100769.41;;;17.09;53.20
8705;BME280;4389;41.932;25.904;2023-03-20T11:16:47;100757.38;;;17.13;50.74
8705;BME280;4389;41.932;25.904;2023-03-20T11:19:14;100759.19;;;17.13;49.87
8705;BME280;4389;41.932;25.904;2023-03-20T11:21:46;100748.69;;;17.03;50.25
8705;BME280;4389;41.932;25.904;2023-03-20T11:24:33;100756.31;;;17.30;49.73
8705;BME280;4389;41.932;25.904;2023-03-20T11:27:08;100745.44;;;17.40;48.43
8705;BME280;4389;41.932;25.904;2023-03-20T11:29:36;100731.91;;;17.72;48.02
8705;BME280;4389;41.932;25.904;2023-03-20T11:32:05;100725.16;;;17.84;48.25
8705;BME280;4389;41.932;25.904;2023-03-20T11:34:36;100730.13;;;17.95;46.96
8705;BME280;4389;41.932;25.904;2023-03-20T11:37:12;100717.50;;;18.03;47.01
8705;BME280;4389;41.932;25.904;2023-03-20T11:39:53;100713.31;;;18.31;46.60
8705;BME280;4389;41.932;25.904;2023-03-20T11:42:25;100708.22;;;18.14;47.80
8705;BME280;4389;41.932;25.904;2023-03-20T11:45:00;100703.69;;;18.14;48.82
8705;BME280;4389;41.932;25.904;2023-03-20T11:47:31;100699.78;;;18.25;47.85
8705;BME280;4389;41.932;25.904;2023-03-20T11:50:00;100697.72;;;18.27;47.90
8705;BME280;4389;41.932;25.904;2023-03-20T11:52:30;100699.41;;;18.28;47.49
8705;BME280;4389;41.932;25.904;2023-03-20T11:54:59;100689.66;;;18.35;46.76
8705;BME280;4389;41.932;25.904;2023-03-20T11:57:33;100686.78;;;18.59;46.29
8705;BME280;4389;41.932;25.904;2023-03-20T12:00:04;100682.44;;;18.72;46.32
8705;BME280;4389;41.932;25.904;2023-03-20T12:02:34;100679.69;;;18.66;46.83
8705;BME280;4389;41.932;25.904;2023-03-20T12:05:16;100674.03;;;18.75;45.93
8705;BME280;4389;41.932;25.904;2023-03-20T12:07:45;100665.91;;;18.97;42.62
8705;BME280;4389;41.932;25.904;2023-03-20T12:10:14;100661.75;;;19.09;44.31
8705;BME280;4389;41.932;25.904;2023-03-20T12:12:48;100656.47;;;19.16;45.08
8705;BME280;4389;41.932;25.904;2023-03-20T12:15:21;100660.72;;;18.82;43.51
8705;BME280;4389;41.932;25.904;2023-03-20T12:17:53;100653.22;;;18.63;45.37
8705;BME280;4389;41.932;25.904;2023-03-20T12:20:30;100638.16;;;18.62;47.24
8705;BME280;4389;41.932;25.904;2023-03-20T12:23:08;100642.25;;;18.87;47.20
8705;BME280;4389;41.932;25.904;2023-03-20T12:25:41;100630.13;;;19.05;47.07
8705;BME280;4389;41.932;25.904;2023-03-20T12:28:17;100638.63;;;19.23;44.96
8705;BME280;4389;41.932;25.904;2023-03-20T12:30:54;100627.59;;;19.32;45.02
8705;BME280;4389;41.932;25.904;2023-03-20T12:33:30;100626.84;;;19.38;45.25
8705;BME280;4389;41.932;25.904;2023-03-20T12:36:01;100615.81;;;19.48;44.93
8705;BME280;4389;41.932;25.904;2023-03-20T12:38:31;100621.78;;;19.64;44.23
8705;BME280;4389;41.932;25.904;2023-03-20T12:41:05;100619.28;;;19.63;43.85
8705;BME280;4389;41.932;25.904;2023-03-20T12:43:47;100616.78;;;19.61;44.89
8705;BME280;4389;41.932;25.904;2023-03-20T12:46:25;100605.88;;;19.48;45.72
8705;BME280;4389;41.932;25.904;2023-03-20T12:49:07;100609.13;;;19.58;45.71
8705;BME280;4389;41.932;25.904;2023-03-20T12:51:45;100609.13;;;19.58;45.71
8705;BME280;4389;41.932;25.904;2023-03-20T12:54:27;100602.41;;;19.69;45.43
8705;BME280;4389;41.932;25.904;2023-03-20T12:57:05;100599.16;;;19.38;45.71
8705;BME280;4389;41.932;25.904;2023-03-20T12:59:48;100598.25;;;19.31;45.55
8705;BME280;4389;41.932;25.904;2023-03-20T13:02:28;100590.94;;;19.39;45.79
8705;BME280;4389;41.932;25.904;2023-03-20T13:05:04;100589.91;;;19.40;46.13
8705;BME280;4389;41.932;25.904;2023-03-20T13:07:43;100591.34;;;19.57;46.15
8705;BME280;4389;41.932;25.904;2023-03-20T13:10:20;100592.94;;;19.73;45.14
8705;BME280;4389;41.932;25.904;2023-03-20T13:12:58;100588.28;;;19.60;45.69
8705;BME280;4389;41.932;25.904;2023-03-20T13:15:38;100580.03;;;19.26;46.06
8705;BME280;4389;41.932;25.904;2023-03-20T13:18:13;100584.59;;;19.11;46.37
8705;BME280;4389;41.932;25.904;2023-03-20T13:20:48;100584.84;;;19.16;46.47
8705;BME280;4389;41.932;25.904;2023-03-20T13:23:22;100584.84;;;19.16;47.19
8705;BME280;4389;41.932;25.904;2023-03-20T13:26:09;100588.19;;;19.18;47.65
8705;BME280;4389;41.932;25.904;2023-03-20T13:28:47;100582.19;;;19.16;47.77
8705;BME280;4389;41.932;25.904;2023-03-20T13:31:27;100571.72;;;19.21;47.80